CYPH

Inukjuak Airport

Inukjuak, Quebec, Canada
TAF CYPH 212341Z 2200/2212 19020G30KT P6SM OVC090 TEMPO 2200/2201 2SM -SN BLSN FM220100 22015G25KT 2SM -SN BLSN VV008 TEMPO 2201/2209 6SM -SN OVC012 PROB40 2202/2209 1SM -SN BLSN VV004 FM220900 24010G20KT 2SM -SN BLSN OVC015 RMK FCST BASED ON AUTO OBS. NXT FCST BY 220600Z
Issued Valid From Valid To
Jan-21 @ 23:41 UTC
(28 minutes ago)
Jan-22 @ 00:00 UTC
(9 minutes ago)
Jan-22 @ 12:00 UTC
(in 12 hours)
Jan-22 @ 00:00 to Jan-22 @ 01:00
TAF CYPH 212341Z 2200/2212 19020G30KT P6SM OVC090
Wind Visibility Clouds
190° at 20 knots
 Gusting to 30 knots
Greater than 6 miles
  • Overcast at 9,000' AGL
Temporary Jan-22 @ 00:00 to Jan-22 @ 01:00
TEMPO 2200/2201 2SM -SN BLSN
Visibility Conditions
2 miles
  • Light Snow
  • Blowing
  • Snow
Temporary Jan-22 @ 01:00 to Jan-22 @ 09:00
TEMPO 2201/2209 6SM -SN OVC012
Visibility Clouds Conditions
6 miles
  • Overcast at 1,200' AGL
  • Light Snow
From Jan-22 @ 01:00 to Jan-22 @ 09:00
FM220100 22015G25KT 2SM -SN BLSN VV008
Wind Visibility Clouds Conditions
220° at 15 knots
 Gusting to 25 knots
2 miles
  • Vertical visibility at 800' AGL
  • Light Snow
  • Blowing
  • Snow
Probable  (Probability 40%) Jan-22 @ 02:00 to Jan-22 @ 09:00
PROB40 2202/2209 1SM -SN BLSN VV004
Visibility Clouds Conditions
1 miles
  • Vertical visibility at 400' AGL
  • Light Snow
  • Blowing
  • Snow
From Jan-22 @ 09:00 to Jan-22 @ 12:00
FM220900 24010G20KT 2SM -SN BLSN OVC015 RMK FCST BASED ON AUTO OBS. NXT FCST BY 220600Z
Wind Visibility Clouds Conditions
240° at 10 knots
 Gusting to 20 knots
2 miles
  • Overcast at 1,500' AGL
  • Light Snow
  • Blowing
  • Snow
TAF CYPH 212341Z 2200/2212 19020G30KT P6SM OVC090 TEMPO 2200/2201 2SM -SN BLSN FM220100 22015G25KT 2SM -SN BLSN VV008 TEMPO 2201/2209 6SM -SN OVC012 PROB40 2202/2209 1SM -SN BLSN VV004 FM220900 24010G20KT 2SM -SN BLSN OVC015 RMK FCST BASED ON AUTO OBS. NXT FCST BY 220600Z
Issued Jan-21 @ 23:41 UTC
(28 minutes ago)
Valid From Jan-22 @ 00:00 UTC
(9 minutes ago)
Valid To Jan-22 @ 12:00 UTC
(in 12 hours)
Jan-22 @ 00:00 - Jan-22 @ 01:00
Wind Visibility
190° at 20 knots
 Gusting to 30 knots
Greater than 6 miles
Clouds
  • Overcast at 9,000' AGL
Temporary Jan-22 @ 00:00 - Jan-22 @ 01:00
Conditions
  • Light Snow
  • Blowing
  • Snow
Temporary Jan-22 @ 01:00 - Jan-22 @ 09:00
Clouds
  • Overcast at 1,200' AGL
Conditions
  • Light Snow
From Jan-22 @ 01:00 - Jan-22 @ 09:00
Wind Visibility
220° at 15 knots
 Gusting to 25 knots
2 miles
Clouds
  • Vertical visibility at 800' AGL
Conditions
  • Light Snow
  • Blowing
  • Snow
Probability 40% Probable Jan-22 @ 02:00 - Jan-22 @ 09:00
Clouds
  • Vertical visibility at 400' AGL
Conditions
  • Light Snow
  • Blowing
  • Snow
From Jan-22 @ 09:00 - Jan-22 @ 12:00
Wind Visibility
240° at 10 knots
 Gusting to 20 knots
2 miles
Clouds
  • Overcast at 1,500' AGL
Conditions
  • Light Snow
  • Blowing
  • Snow